Pearland, TX

9:17 AM CST on March 04, 2015 (GMT -0600)
Clover | Change Station
CLOSE
Current Station
Airport
Location: Houston Clover,
Elevation: 43 ft
Nearby Weather Stations

Elev 43 ft 29.52 °N, 95.24 °W | Updated 24 minutes ago

Overcast
Overcast
72 °F
Feels Like 72 °F
N
10
Wind Variable Wind from South

Today
High -- | Low -- °F
--% Chance of Precip.
Yesterday
High -- | Low -- °F
Precip. -- in
6:43 AM 6:22 PM
Waxing Gibbous, 99% visible
Pressure 29.92 in
Visibility 8.0 miles
Clouds Overcast 3200 ft
Dew Point 67 °F
Humidity 84%
Rainfall 0.00 in
Snow Depth Not available.
UV 1 out of 12
Pollen 5.50 out of 12
Air Quality Not available.
Flu Activity Not available.
METAR KLVJ 041453Z AUTO 17009KT 8SM OVC032 22/19 A2992 RMK AO2 SLP131 T02220194 53013

More Conditions Fewer Conditions

Pressure 29.92 in
Visibility 8.0 miles
Clouds Overcast 3200 ft
Dew Point 67 °F
Humidity 84%
Rainfall 0.00 in
Snow Depth Not available.
UV 1 out of 12
Pollen 5.50 out of 12
Air Quality Not available.
Flu Activity Not available.
METAR KLVJ 041453Z AUTO 17009KT 8SM OVC032 22/19 A2992 RMK AO2 SLP131 T02220194 53013

More Conditions Fewer Conditions

10-Day Weather Forecast

Almanac

Astronomy

Mar. 04, 2015 Rise Set
Actual Time
Civil Twilight
Nautical Twilight
Astronomical Twilight
Moon
Length of Visible Light
Length of Day
Tomorrow will be .
, % of the Moon is Illuminated

Today's Extremes

State Highs State Lows

Community

WunderPhotos

Upload Photos

1,802,487 photos uploaded!

WunderBlogs® & News

Nearby

Air Quality

  Air Quality AQ Index Pollutant
Not available.

Snow Depth

Station Depth Elevation

Earthquake Activity

City Distance Mag. Time & Date
Minimum magnitude displayed is 2.5.

Coastal Water Temperatures

Place Temperature

Nearby Weather Stations